Terminal Aerodrome Forecast
Issued by NWS

Home | Current Version | Previous Version | Text Only | Print | Product List | Glossary On
Versions: 1 2 3 4 5 6 7 8 9 10 11 12 13 14 15 16 17 18 19 20 21 22 23 24 25 26 27 28
000
FTUS41 KCTP 020546
TAFAOO
TAF
KAOO 020546Z 0206/0306 14006KT 1/2SM FG VCSH VV002
      TEMPO 0208/0210 4SM -RA OVC004
     FM021000 VRB05KT 4SM BR OVC004
     FM021300 21007KT 3SM -SHRA SCT007 OVC015
     FM021600 27010KT P6SM BKN050=

USA.gov is the U.S. government's official web portal to all federal, state and local government web resources and services.